| time (UTC) | temp F | wind direction | speed MPH | gust MPH | rain 1hr in | rain 24hr in | rain mn in | humidity % | barometer mb |
| 20260504174600 | 86 | 321 | 0.0 | 3.0 | 0.00 | 0.00 | 0.00 | 41 | 1015.3 |
| 20260504174433 | 86 | 18 | 0.0 | 1.0 | 0.00 | 0.00 | 0.00 | 42 | 1015.4 |
| 20260504173948 | 86 | 4 | 0.0 | 2.0 | 0.00 | 0.00 | 0.00 | 42 | 1015.6 |
| 20260504173435 | 87 | 349 | 0.0 | 1.0 | 0.00 | 0.00 | 0.00 | 41 | 1015.6 |
| 20260504173047 | 87 | 217 | 0.0 | 1.0 | 0.00 | 0.00 | 0.00 | 41 | 1015.6 |
| 20260504172948 | 87 | 105 | 0.0 | 1.0 | 0.00 | 0.00 | 0.00 | 41 | 1015.5 |
| 20260504172438 | 87 | 51 | 0.0 | 2.0 | 0.00 | 0.00 | 0.00 | 41 | 1015.6 |
| 20260504171925 | 88 | 63 | 0.0 | 2.0 | 0.00 | 0.00 | 0.00 | 39 | 1015.6 |
| 20260504171640 | 87 | 234 | 0.0 | 1.0 | 0.00 | 0.00 | 0.00 | 39 | 1015.6 |
| 20260504171423 | 88 | 275 | 0.0 | 1.0 | 0.00 | 0.00 | 0.00 | 40 | 1015.8 |
| 20260504170930 | 88 | 141 | 0.0 | 3.0 | 0.00 | 0.00 | 0.00 | 40 | 1015.7 |
| 20260504170445 | 87 | 15 | 0.0 | 3.0 | 0.00 | 0.00 | 0.00 | 40 | 1015.8 |
| 20260504160442 | 85 | 105 | 0.0 | 3.0 | 0.00 | 0.00 | 0.00 | 43 | 1016.6 |
| 20260504150933 | 82 | 27 | 0.0 | 4.0 | 0.00 | 0.00 | 0.00 | 49 | 1016.8 |
| 20260504150448 | 81 | 14 | 0.0 | 3.0 | 0.00 | 0.00 | 0.00 | 49 | 1016.8 |
| 20260504140938 | 79 | 125 | 0.0 | 2.0 | 0.00 | 0.00 | 0.00 | 60 | 1016.6 |
| 20260504140423 | 78 | 49 | 0.0 | 6.0 | 0.00 | 0.00 | 0.00 | 61 | 1016.6 |
| 20260504130441 | 71 | 94 | 0.0 | 4.0 | 0.00 | 0.00 | 0.00 | 71 | 1016.3 |
| 20260504110427 | 64 | 22 | 0.0 | 1.0 | 0.00 | 0.00 | 0.00 | 82 | 1015.6 |
| 20260504100436 | 64 | 18 | 0.0 | 1.0 | 0.00 | 0.00 | 0.00 | 82 | 1015.4 |
| 20260504081925 | 66 | 13 | 0.0 | 2.0 | 0.00 | 0.00 | 0.00 | 80 | 1015.0 |
| 20260504081442 | 66 | 17 | 0.0 | 2.0 | 0.00 | 0.00 | 0.00 | 80 | 1015.1 |
| 20260504080929 | 67 | 354 | 0.0 | 2.0 | 0.00 | 0.00 | 0.00 | 80 | 1015.1 |
| 20260504080437 | 67 | 17 | 0.0 | 2.0 | 0.00 | 0.00 | 0.00 | 80 | 1015.2 |
| 20260504050443 | 69 | 13 | 0.0 | 0.0 | 0.00 | 0.01 | 0.00 | 77 | 1015.8 |
| 20260504050024 | 68 | 13 | 0.0 | 0.0 | 0.00 | 0.01 | 0.00 | 77 | 1015.8 |
| 20260504045930 | 69 | 13 | 0.0 | 0.0 | 0.00 | 0.01 | 0.00 | 77 | 1015.9 |
| 20260504045435 | 69 | 13 | 0.0 | 0.0 | 0.00 | 0.01 | 0.00 | 77 | 1016.2 |
| 20260504044930 | 69 | 13 | 0.0 | 0.0 | 0.00 | 0.01 | 0.00 | 77 | 1016.4 |
| 20260504044514 | 69 | 13 | 0.0 | 1.0 | 0.00 | 0.01 | 0.00 | 77 | 1016.4 |
| 20260504044436 | 69 | 13 | 0.0 | 1.0 | 0.00 | 0.01 | 0.00 | 77 | 1016.5 |
| 20260504043923 | 69 | 13 | 0.0 | 1.0 | 0.00 | 0.01 | 0.00 | 77 | 1016.5 |
| 20260504043437 | 69 | 11 | 0.0 | 0.0 | 0.00 | 0.01 | 0.00 | 77 | 1016.6 |
| 20260504043111 | 69 | 11 | 0.0 | 1.0 | 0.00 | 0.01 | 0.00 | 77 | 1016.6 |
| 20260504042927 | 69 | 11 | 0.0 | 1.0 | 0.00 | 0.01 | 0.00 | 77 | 1016.6 |
| 20260504042439 | 69 | 11 | 0.0 | 1.0 | 0.00 | 0.01 | 0.00 | 77 | 1016.7 |
| 20260504041925 | 69 | 11 | 0.0 | 0.0 | 0.00 | 0.01 | 0.00 | 76 | 1016.8 |
| 20260504041652 | 69 | 11 | 0.0 | 0.0 | 0.00 | 0.01 | 0.00 | 76 | 1016.7 |
| 20260504041442 | 70 | 11 | 0.0 | 0.0 | 0.00 | 0.01 | 0.00 | 77 | 1016.8 |
| 20260504040929 | 70 | 11 | 0.0 | 0.0 | 0.00 | 0.01 | 0.00 | 76 | 1016.9 |
| 20260504040435 | 70 | 11 | 0.0 | 0.0 | 0.00 | 0.01 | 0.00 | 75 | 1017.0 |
| 20260504040023 | 70 | 11 | 0.0 | 0.0 | 0.00 | 0.01 | 0.01 | 75 | 1016.9 |
| 20260504035928 | 70 | 11 | 0.0 | 0.0 | 0.00 | 0.01 | 0.01 | 75 | 1016.9 |
| 20260504035437 | 70 | 11 | 0.0 | 1.0 | 0.00 | 0.01 | 0.01 | 75 | 1017.0 |
| 20260504034928 | 70 | 11 | 0.0 | 0.0 | 0.00 | 0.01 | 0.01 | 75 | 1017.0 |
| 20260504034516 | 70 | 24 | 0.0 | 0.0 | 0.00 | 0.01 | 0.01 | 75 | 1016.9 |
| 20260504034422 | 70 | 23 | 0.0 | 0.0 | 0.00 | 0.01 | 0.01 | 75 | 1017.0 |
| 20260504033930 | 70 | 24 | 0.0 | 0.0 | 0.00 | 0.01 | 0.01 | 75 | 1016.9 |
| 20260504033446 | 70 | 24 | 0.0 | 0.0 | 0.00 | 0.01 | 0.01 | 75 | 1016.8 |
| 20260504033009 | 70 | 24 | 0.0 | 1.0 | 0.00 | 0.01 | 0.01 | 75 | 1016.8 |
| 20260504032934 | 71 | 24 | 0.0 | 1.0 | 0.00 | 0.01 | 0.01 | 75 | 1016.8 |
| 20260504032422 | 71 | 24 | 0.0 | 1.0 | 0.00 | 0.01 | 0.01 | 74 | 1016.8 |
| 20260504031937 | 71 | 23 | 0.0 | 1.0 | 0.00 | 0.01 | 0.01 | 74 | 1016.7 |
| 20260504031430 | 71 | 52 | 0.0 | 1.0 | 0.00 | 0.01 | 0.01 | 74 | 1016.7 |
| 20260504030943 | 71 | 53 | 0.0 | 1.0 | 0.00 | 0.01 | 0.01 | 74 | 1016.7 |
| 20260504030431 | 71 | 51 | 0.0 | 1.0 | 0.00 | 0.01 | 0.01 | 74 | 1016.7 |
| 20260504030047 | 71 | 6 | 0.0 | 1.0 | 0.00 | 0.01 | 0.01 | 73 | 1016.6 |
| 20260504025946 | 72 | 6 | 0.0 | 1.0 | 0.00 | 0.01 | 0.01 | 73 | 1016.6 |
| 20260504025435 | 72 | 4 | 0.0 | 1.0 | 0.00 | 0.01 | 0.01 | 73 | 1016.6 |
| 20260504024922 | 72 | 91 | 0.0 | 1.0 | 0.00 | 0.01 | 0.01 | 73 | 1016.7 |
| 20260504024538 | 72 | 347 | 0.0 | 1.0 | 0.00 | 0.01 | 0.01 | 73 | 1016.6 |
| 20260504024436 | 72 | 18 | 0.0 | 1.0 | 0.00 | 0.01 | 0.01 | 73 | 1016.6 |
| 20260504023924 | 72 | 35 | 0.0 | 1.0 | 0.00 | 0.01 | 0.01 | 73 | 1016.6 |
| 20260504023432 | 72 | 36 | 0.0 | 1.0 | 0.00 | 0.01 | 0.01 | 73 | 1016.6 |
| 20260504023030 | 71 | 55 | 0.0 | 1.0 | 0.00 | 0.01 | 0.01 | 73 | 1016.5 |
| 20260504022946 | 72 | 27 | 0.0 | 1.0 | 0.00 | 0.01 | 0.01 | 73 | 1016.5 |
| 20260504022436 | 72 | 65 | 0.0 | 1.0 | 0.00 | 0.01 | 0.01 | 74 | 1016.4 |
| 20260504021926 | 72 | 65 | 0.0 | 0.0 | 0.00 | 0.01 | 0.01 | 73 | 1016.4 |
| 20260504021512 | 72 | 65 | 0.0 | 1.0 | 0.00 | 0.01 | 0.01 | 73 | 1016.3 |
| 20260504021426 | 72 | 65 | 0.0 | 1.0 | 0.00 | 0.01 | 0.01 | 73 | 1016.3 |
| 20260504020936 | 72 | 65 | 0.0 | 1.0 | 0.00 | 0.01 | 0.01 | 73 | 1016.2 |
| 20260504020431 | 72 | 65 | 0.0 | 1.0 | 0.00 | 0.01 | 0.01 | 73 | 1016.2 |
| 20260504020007 | 72 | 108 | 0.0 | 1.0 | 0.00 | 0.01 | 0.01 | 73 | 1016.1 |
| 20260504015924 | 72 | 109 | 0.0 | 1.0 | 0.00 | 0.01 | 0.01 | 73 | 1016.2 |
| 20260504015432 | 72 | 109 | 0.0 | 1.0 | 0.00 | 0.01 | 0.01 | 72 | 1016.0 |
| 20260504014929 | 72 | 109 | 0.0 | 1.0 | 0.00 | 0.01 | 0.01 | 72 | 1016.0 |
| 20260504014507 | 72 | 109 | 0.0 | 1.0 | 0.00 | 0.01 | 0.01 | 72 | 1015.8 |
| 20260504014441 | 73 | 109 | 0.0 | 1.0 | 0.00 | 0.01 | 0.01 | 72 | 1016.0 |
| 20260504013930 | 73 | 109 | 0.0 | 1.0 | 0.00 | 0.01 | 0.01 | 72 | 1016.0 |
| 20260504013427 | 73 | 108 | 0.0 | 1.0 | 0.00 | 0.01 | 0.01 | 72 | 1016.0 |
| 20260504013003 | 73 | 110 | 0.0 | 1.0 | 0.00 | 0.01 | 0.01 | 72 | 1015.7 |
| 20260504012934 | 73 | 110 | 0.0 | 1.0 | 0.00 | 0.01 | 0.01 | 72 | 1015.8 |
| 20260504012423 | 73 | 110 | 0.0 | 1.0 | 0.00 | 0.01 | 0.01 | 72 | 1015.8 |
| 20260504011938 | 73 | 76 | 0.0 | 0.0 | 0.00 | 0.01 | 0.01 | 71 | 1015.8 |
| 20260504011659 | 73 | 76 | 0.0 | 0.0 | 0.00 | 0.01 | 0.01 | 71 | 1015.6 |
| 20260504011429 | 74 | 76 | 0.0 | 0.0 | 0.00 | 0.01 | 0.01 | 71 | 1015.8 |
| 20260504010923 | 74 | 77 | 0.0 | 1.0 | 0.00 | 0.01 | 0.01 | 70 | 1015.6 |
| 20260504010431 | 74 | 77 | 0.0 | 1.0 | 0.00 | 0.01 | 0.01 | 70 | 1015.5 |
| 20260504010036 | 73 | 84 | 0.0 | 1.0 | 0.00 | 0.01 | 0.01 | 70 | 1015.4 |
| 20260504005945 | 74 | 84 | 0.0 | 1.0 | 0.00 | 0.01 | 0.01 | 70 | 1015.4 |
| 20260504005434 | 74 | 83 | 0.0 | 1.0 | 0.00 | 0.01 | 0.01 | 69 | 1015.4 |
| 20260504004923 | 74 | 83 | 0.0 | 0.0 | 0.00 | 0.01 | 0.01 | 69 | 1015.3 |
| 20260504004533 | 74 | 83 | 0.0 | 0.0 | 0.00 | 0.01 | 0.01 | 68 | 1015.3 |
| 20260504004437 | 75 | 84 | 0.0 | 0.0 | 0.00 | 0.01 | 0.01 | 68 | 1015.3 |
| 20260504003926 | 75 | 84 | 0.0 | 0.0 | 0.00 | 0.01 | 0.01 | 68 | 1015.3 |
| 20260504003436 | 75 | 84 | 0.0 | 0.0 | 0.00 | 0.01 | 0.01 | 67 | 1015.2 |
| 20260504003028 | 75 | 84 | 0.0 | 0.0 | 0.00 | 0.01 | 0.01 | 67 | 1015.0 |
| 20260504002929 | 75 | 84 | 0.0 | 0.0 | 0.00 | 0.01 | 0.01 | 67 | 1015.0 |
| 20260504002438 | 76 | 84 | 0.0 | 0.0 | 0.00 | 0.01 | 0.01 | 66 | 1015.0 |
| 20260504001930 | 76 | 84 | 0.0 | 0.0 | 0.00 | 0.01 | 0.01 | 66 | 1014.9 |
| 20260504001512 | 75 | 84 | 0.0 | 1.0 | 0.00 | 0.01 | 0.01 | 66 | 1014.8 |
| 20260504001430 | 76 | 84 | 0.0 | 1.0 | 0.00 | 0.01 | 0.01 | 65 | 1014.9 |
| 20260504000924 | 76 | 84 | 0.0 | 0.0 | 0.00 | 0.01 | 0.01 | 65 | 1014.9 |
| 20260504000441 | 77 | 84 | 0.0 | 1.0 | 0.00 | 0.01 | 0.01 | 64 | 1014.9 |
| 20260504000027 | 76 | 84 | 0.0 | 1.0 | 0.00 | 0.01 | 0.01 | 64 | 1014.7 |
| 20260503235931 | 77 | 84 | 0.0 | 1.0 | 0.00 | 0.01 | 0.01 | 64 | 1014.9 |
| 20260503235447 | 77 | 84 | 0.0 | 1.0 | 0.00 | 0.01 | 0.01 | 63 | 1014.7 |
| 20260503234936 | 78 | 84 | 0.0 | 1.0 | 0.00 | 0.01 | 0.01 | 62 | 1014.8 |
| 20260503234505 | 77 | 110 | 0.0 | 0.0 | 0.00 | 0.01 | 0.01 | 61 | 1014.7 |
| 20260503234424 | 78 | 110 | 0.0 | 0.0 | 0.00 | 0.01 | 0.01 | 61 | 1014.8 |
| 20260503233935 | 78 | 53 | 0.0 | 1.0 | 0.00 | 0.01 | 0.01 | 61 | 1014.7 |
| 20260503233430 | 79 | 6 | 0.0 | 1.0 | 0.00 | 0.01 | 0.01 | 60 | 1014.6 |
| 20260503233000 | 78 | 103 | 0.0 | 1.0 | 0.00 | 0.01 | 0.01 | 60 | 1014.6 |
| 20260503232938 | 79 | 103 | 0.0 | 1.0 | 0.00 | 0.01 | 0.01 | 60 | 1014.5 |
| 20260503232428 | 79 | 69 | 0.0 | 1.0 | 0.00 | 0.01 | 0.01 | 59 | 1014.5 |
| 20260503231924 | 80 | 71 | 0.0 | 1.0 | 0.00 | 0.01 | 0.01 | 58 | 1014.6 |
| 20260503231444 | 80 | 154 | 0.0 | 1.0 | 0.00 | 0.01 | 0.01 | 58 | 1014.6 |
| 20260503230937 | 81 | 210 | 0.0 | 1.0 | 0.00 | 0.01 | 0.01 | 57 | 1014.5 |
| 20260503230426 | 81 | 162 | 0.0 | 2.0 | 0.00 | 0.01 | 0.01 | 56 | 1014.5 |
| 20260503230043 | 81 | 150 | 0.0 | 2.0 | 0.00 | 0.07 | 0.01 | 56 | 1014.4 |
| 20260503225942 | 82 | 141 | 0.0 | 2.0 | 0.00 | 0.07 | 0.01 | 55 | 1014.5 |
| 20260503225432 | 82 | 179 | 0.0 | 1.0 | 0.00 | 0.07 | 0.01 | 55 | 1014.6 |
| 20260503224922 | 82 | 197 | 0.0 | 1.0 | 0.00 | 0.07 | 0.01 | 54 | 1014.5 |
| 20260503224544 | 82 | 286 | 0.0 | 1.0 | 0.00 | 0.07 | 0.01 | 54 | 1014.4 |
| 20260503224439 | 82 | 275 | 0.0 | 1.0 | 0.00 | 0.07 | 0.01 | 54 | 1014.5 |
| 20260503223927 | 82 | 346 | 0.0 | 1.0 | 0.00 | 0.07 | 0.01 | 55 | 1014.4 |
| 20260503223438 | 82 | 346 | 0.0 | 1.0 | 0.00 | 0.07 | 0.01 | 54 | 1014.4 |
| 20260503223037 | 82 | 345 | 0.0 | 3.0 | 0.00 | 0.07 | 0.01 | 52 | 1014.4 |
| 20260503222925 | 83 | 32 | 0.0 | 3.0 | 0.00 | 0.07 | 0.01 | 52 | 1014.4 |
| 20260503222423 | 84 | 9 | 0.0 | 3.0 | 0.00 | 0.07 | 0.01 | 49 | 1014.4 |
| 20260503221934 | 85 | 17 | 0.0 | 2.0 | 0.00 | 0.07 | 0.01 | 49 | 1014.5 |
| 20260503221515 | 85 | 10 | 0.0 | 4.0 | 0.00 | 0.07 | 0.01 | 49 | 1014.5 |
| 20260503221430 | 85 | 360 | 0.0 | 4.0 | 0.00 | 0.07 | 0.01 | 49 | 1014.5 |
| 20260503220920 | 85 | 8 | 1.0 | 4.0 | 0.00 | 0.07 | 0.01 | 49 | 1014.5 |
| 20260503220436 | 85 | 63 | 0.0 | 1.0 | 0.00 | 0.07 | 0.01 | 50 | 1014.5 |
| 20260503220019 | 85 | 63 | 0.0 | 1.0 | 0.00 | 0.14 | 0.01 | 49 | 1014.4 |
| 20260503215924 | 85 | 63 | 0.0 | 1.0 | 0.00 | 0.14 | 0.01 | 48 | 1014.5 |
| 20260503215433 | 86 | 34 | 0.0 | 1.0 | 0.00 | 0.14 | 0.01 | 49 | 1014.4 |
| 20260503214921 | 85 | 20 | 0.0 | 2.0 | 0.00 | 0.14 | 0.01 | 50 | 1014.5 |
| 20260503214522 | 84 | 63 | 0.0 | 2.0 | 0.00 | 0.14 | 0.01 | 50 | 1014.4 |
| 20260503214435 | 85 | 77 | 0.0 | 2.0 | 0.00 | 0.14 | 0.01 | 50 | 1014.5 |
| 20260503213922 | 84 | 308 | 0.0 | 2.0 | 0.00 | 0.14 | 0.01 | 51 | 1014.5 |
| 20260503213436 | 84 | 150 | 0.0 | 1.0 | 0.00 | 0.14 | 0.01 | 51 | 1014.5 |
| 20260503213002 | 83 | 350 | 0.0 | 2.0 | 0.00 | 0.14 | 0.01 | 52 | 1014.5 |
| 20260503212922 | 84 | 350 | 0.0 | 2.0 | 0.00 | 0.14 | 0.01 | 52 | 1014.5 |
| 20260503212431 | 84 | 338 | 0.0 | 4.0 | 0.00 | 0.14 | 0.01 | 51 | 1014.5 |
| 20260503211928 | 84 | 343 | 0.0 | 4.0 | 0.00 | 0.14 | 0.01 | 51 | 1014.4 |
| 20260503211423 | 84 | 326 | 0.0 | 1.0 | 0.00 | 0.14 | 0.01 | 51 | 1014.4 |
| 20260503210936 | 84 | 48 | 0.0 | 3.0 | 0.00 | 0.14 | 0.01 | 52 | 1014.5 |
| 20260503210424 | 83 | 338 | 0.0 | 4.0 | 0.00 | 0.14 | 0.01 | 53 | 1014.5 |
| 20260503210049 | 82 | 11 | 0.0 | 4.0 | 0.00 | 0.14 | 0.01 | 53 | 1014.5 |
| 20260503205930 | 83 | 11 | 1.0 | 4.0 | 0.00 | 0.14 | 0.01 | 54 | 1014.6 |
| 20260503205423 | 82 | 357 | 0.0 | 3.0 | 0.00 | 0.14 | 0.01 | 54 | 1014.6 |
| 20260503204930 | 82 | 8 | 0.0 | 2.0 | 0.00 | 0.14 | 0.01 | 53 | 1014.7 |
| 20260503204537 | 81 | 312 | 0.0 | 2.0 | 0.00 | 0.14 | 0.01 | 55 | 1014.8 |
| 20260503204445 | 82 | 55 | 0.0 | 4.0 | 0.00 | 0.14 | 0.01 | 54 | 1014.8 |
| 20260503203934 | 82 | 30 | 0.0 | 4.0 | 0.00 | 0.14 | 0.01 | 54 | 1014.8 |
| 20260503203422 | 82 | 77 | 0.0 | 2.0 | 0.00 | 0.14 | 0.01 | 54 | 1014.9 |
| 20260503203030 | 81 | 3 | 0.0 | 2.0 | 0.00 | 0.14 | 0.01 | 55 | 1014.9 |
| 20260503202938 | 82 | 359 | 0.0 | 2.0 | 0.00 | 0.14 | 0.01 | 55 | 1014.9 |
| 20260503202428 | 81 | 276 | 0.0 | 1.0 | 0.00 | 0.14 | 0.01 | 55 | 1014.9 |
| 20260503201943 | 81 | 345 | 0.0 | 1.0 | 0.00 | 0.14 | 0.01 | 57 | 1014.9 |
| 20260503201506 | 81 | 214 | 0.0 | 1.0 | 0.00 | 0.14 | 0.01 | 55 | 1014.9 |
| 20260503201432 | 82 | 247 | 0.0 | 1.0 | 0.00 | 0.14 | 0.01 | 55 | 1015.0 |
| 20260503200946 | 82 | 309 | 0.0 | 2.0 | 0.00 | 0.14 | 0.01 | 56 | 1015.0 |
| 20260503200432 | 81 | 316 | 0.0 | 3.0 | 0.00 | 0.14 | 0.01 | 57 | 1015.0 |
| 20260503200059 | 80 | 290 | 0.0 | 3.0 | 0.00 | 0.53 | 0.01 | 57 | 1015.0 |
| 20260503195938 | 80 | 18 | 0.0 | 3.0 | 0.00 | 0.53 | 0.01 | 57 | 1015.2 |
| 20260503195434 | 81 | 4 | 1.0 | 3.0 | 0.00 | 0.53 | 0.01 | 56 | 1015.2 |
| 20260503194921 | 81 | 250 | 0.0 | 4.0 | 0.00 | 0.53 | 0.01 | 55 | 1015.2 |
| 20260503194611 | 80 | 8 | 0.0 | 4.0 | 0.00 | 0.53 | 0.01 | 54 | 1015.3 |
| 20260503194429 | 81 | 356 | 1.0 | 4.0 | 0.00 | 0.53 | 0.01 | 55 | 1015.4 |
| 20260503193944 | 81 | 333 | 0.0 | 3.0 | 0.00 | 0.53 | 0.01 | 56 | 1015.4 |
| 20260503193432 | 81 | 287 | 0.0 | 3.0 | 0.00 | 0.53 | 0.01 | 56 | 1015.6 |
| 20260503193048 | 80 | 259 | 0.0 | 3.0 | 0.00 | 0.53 | 0.01 | 56 | 1015.7 |
| 20260503192920 | 81 | 32 | 1.0 | 3.0 | 0.00 | 0.53 | 0.01 | 58 | 1015.8 |
| 20260503192435 | 81 | 119 | 0.0 | 1.0 | 0.00 | 0.53 | 0.01 | 57 | 1015.8 |
| 20260503191923 | 81 | 275 | 0.0 | 2.0 | 0.00 | 0.53 | 0.01 | 58 | 1015.8 |
| 20260503191645 | 80 | 162 | 0.0 | 4.0 | 0.00 | 0.53 | 0.01 | 58 | 1015.7 |
| 20260503191440 | 81 | 101 | 0.0 | 4.0 | 0.00 | 0.53 | 0.01 | 59 | 1015.9 |
| 20260503190926 | 80 | 1 | 2.0 | 4.0 | 0.00 | 0.53 | 0.01 | 58 | 1016.1 |
| 20260503190434 | 80 | 10 | 1.0 | 4.0 | 0.00 | 0.53 | 0.01 | 56 | 1016.2 |
| 20260503190021 | 79 | 89 | 0.0 | 3.0 | 0.00 | 0.53 | 0.01 | 60 | 1016.2 |
| 20260503185921 | 80 | 72 | 0.0 | 3.0 | 0.00 | 0.53 | 0.01 | 59 | 1016.3 |
| 20260503185429 | 79 | 53 | 0.0 | 3.0 | 0.00 | 0.53 | 0.01 | 59 | 1016.4 |
| 20260503184945 | 79 | 42 | 0.0 | 3.0 | 0.00 | 0.53 | 0.01 | 61 | 1016.4 |
| 20260503184513 | 78 | 3 | 0.0 | 3.0 | 0.00 | 0.53 | 0.01 | 61 | 1016.4 |
| 20260503184434 | 79 | 14 | 1.0 | 3.0 | 0.00 | 0.53 | 0.01 | 61 | 1016.5 |
| 20260503183947 | 79 | 354 | 1.0 | 3.0 | 0.00 | 0.53 | 0.01 | 60 | 1016.6 |
| 20260503183432 | 79 | 54 | 1.0 | 4.0 | 0.00 | 0.53 | 0.01 | 60 | 1016.7 |
| 20260503183001 | 78 | 41 | 1.0 | 4.0 | 0.00 | 0.53 | 0.01 | 60 | 1016.6 |
| 20260503182920 | 79 | 328 | 1.0 | 4.0 | 0.00 | 0.53 | 0.01 | 61 | 1016.7 |
| 20260503182429 | 78 | 303 | 1.0 | 2.0 | 0.00 | 0.53 | 0.01 | 61 | 1016.7 |
| 20260503181928 | 79 | 16 | 0.0 | 4.0 | 0.00 | 0.53 | 0.01 | 61 | 1016.8 |
| 20260503181446 | 79 | 27 | 0.0 | 3.0 | 0.00 | 0.53 | 0.01 | 63 | 1016.8 |
| 20260503180934 | 79 | 28 | 0.0 | 3.0 | 0.00 | 0.53 | 0.01 | 62 | 1016.8 |
| 20260503180423 | 79 | 48 | 1.0 | 3.0 | 0.00 | 0.53 | 0.01 | 61 | 1016.8 |
| 20260503180049 | 79 | 354 | 0.0 | 3.0 | 0.00 | 0.53 | 0.01 | 61 | 1016.8 |
| 20260503175930 | 79 | 12 | 1.0 | 3.0 | 0.00 | 0.53 | 0.01 | 62 | 1017.0 |
| 20260503175424 | 79 | 12 | 0.0 | 1.0 | 0.00 | 0.53 | 0.01 | 61 | 1017.0 |
| 20260503174932 | 79 | 148 | 0.0 | 1.0 | 0.00 | 0.53 | 0.01 | 63 | 1017.2 |